createdAt,value
2023-04-19T00:00:12.189Z,5.47
2023-04-19T00:02:40.903Z,5.47
2023-04-19T00:05:09.190Z,4.80
2023-04-19T00:07:36.235Z,5.13
2023-04-19T00:10:03.330Z,4.18
2023-04-19T00:12:29.740Z,4.55
2023-04-19T00:14:56.138Z,4.50
2023-04-19T00:17:22.948Z,4.53
2023-04-19T00:19:49.466Z,4.45
2023-04-19T00:22:17.256Z,4.15
2023-04-19T00:24:43.641Z,4.15
2023-04-19T00:27:10.055Z,4.05
2023-04-19T00:29:36.477Z,4.00
2023-04-19T00:32:04.076Z,4.43
2023-04-19T00:34:30.471Z,3.83
2023-04-19T00:36:57.081Z,3.83
2023-04-19T00:39:23.718Z,3.90
2023-04-19T00:41:50.116Z,3.60
2023-04-19T00:44:18.559Z,3.38
2023-04-19T00:46:45.394Z,3.33
2023-04-19T00:49:11.956Z,3.72
2023-04-19T00:51:38.450Z,3.33
2023-04-19T00:54:05.015Z,3.10
2023-04-19T00:56:34.074Z,3.22
2023-04-19T00:59:00.591Z,3.15
2023-04-19T01:01:27.067Z,3.45
2023-04-19T01:04:19.040Z,3.85
2023-04-19T01:06:46.516Z,3.70
2023-04-19T01:09:12.917Z,3.53
2023-04-19T01:11:43.168Z,3.67
2023-04-19T01:14:10.026Z,3.42
2023-04-19T01:16:36.423Z,3.83
2023-04-19T01:19:12.404Z,3.15
2023-04-19T01:21:40.313Z,3.60
2023-04-19T01:24:07.080Z,3.30
2023-04-19T01:26:33.495Z,4.32
2023-04-19T01:29:02.266Z,3.35
2023-04-19T01:31:28.733Z,3.80
2023-04-19T01:33:55.218Z,3.92
2023-04-19T01:36:21.653Z,3.65
2023-04-19T01:38:48.050Z,3.40
2023-04-19T01:41:14.536Z,3.45
2023-04-19T01:43:40.926Z,4.72
2023-04-19T01:46:08.368Z,4.03
2023-04-19T01:48:37.662Z,3.55
2023-04-19T01:51:04.208Z,4.10
2023-04-19T01:53:30.626Z,3.35
2023-04-19T01:55:57.022Z,3.50
2023-04-19T01:58:23.397Z,3.85
2023-04-19T02:00:49.860Z,3.80
2023-04-19T02:03:16.682Z,4.25
2023-04-19T02:05:46.445Z,3.40
2023-04-19T02:08:12.846Z,3.90
2023-04-19T02:10:39.280Z,4.00
2023-04-19T02:13:05.996Z,3.67
2023-04-19T02:15:33.570Z,3.22
2023-04-19T02:18:00.266Z,3.60
2023-04-19T02:20:26.844Z,3.10
2023-04-19T02:22:53.256Z,3.25
2023-04-19T02:25:19.972Z,3.53
2023-04-19T02:27:46.376Z,3.67
2023-04-19T02:30:13.028Z,3.47
2023-04-19T02:32:39.531Z,4.10
2023-04-19T02:35:06.587Z,3.38
2023-04-19T02:37:33.041Z,3.63
2023-04-19T02:39:59.459Z,3.55
2023-04-19T02:42:28.665Z,3.60
2023-04-19T02:44:55.097Z,3.70
2023-04-19T02:47:24.055Z,4.13
2023-04-19T02:49:50.489Z,3.92
2023-04-19T02:52:17.853Z,3.35
2023-04-19T02:54:44.955Z,3.17
2023-04-19T02:57:11.383Z,2.65
2023-04-19T02:59:39.890Z,3.00
2023-04-19T03:02:06.471Z,3.22
2023-04-19T03:04:32.969Z,3.67
2023-04-19T03:06:59.491Z,3.95
2023-04-19T03:09:26.268Z,4.47
2023-04-19T03:11:53.223Z,3.00
2023-04-19T03:14:19.650Z,3.45
2023-04-19T03:16:47.248Z,3.13
2023-04-19T03:19:13.771Z,3.50
2023-04-19T03:21:46.882Z,3.55
2023-04-19T03:24:13.505Z,3.22
2023-04-19T03:26:45.132Z,3.15
2023-04-19T03:29:13.149Z,3.40
2023-04-19T03:31:50.007Z,2.97
2023-04-19T03:34:18.154Z,3.80
2023-04-19T03:36:46.804Z,3.28
2023-04-19T03:39:13.215Z,3.20
2023-04-19T03:41:41.531Z,4.03
2023-04-19T03:44:20.333Z,3.40
2023-04-19T03:46:48.698Z,3.67
2023-04-19T03:49:18.936Z,3.30
2023-04-19T03:51:50.437Z,3.65
2023-04-19T03:54:17.035Z,3.20
2023-04-19T03:56:43.569Z,3.30
2023-04-19T03:59:10.523Z,3.65
2023-04-19T04:01:41.925Z,3.30
2023-04-19T04:04:09.145Z,3.63
2023-04-19T04:06:37.206Z,3.45
2023-04-19T04:09:04.068Z,4.22
2023-04-19T04:11:30.844Z,4.18
2023-04-19T04:13:57.709Z,3.42
2023-04-19T04:16:47.367Z,3.40
2023-04-19T04:19:15.786Z,3.45
2023-04-19T04:21:42.337Z,4.97
2023-04-19T04:24:09.850Z,4.25
2023-04-19T04:26:43.014Z,3.40
2023-04-19T04:29:18.055Z,4.00
2023-04-19T04:31:45.219Z,2.83
2023-04-19T04:34:14.316Z,3.83
2023-04-19T04:36:50.516Z,3.15
2023-04-19T04:39:18.939Z,3.38
2023-04-19T04:41:46.293Z,3.60
2023-04-19T04:44:13.219Z,3.60
2023-04-19T04:46:41.439Z,4.15
2023-04-19T04:49:09.953Z,4.18
2023-04-19T04:51:37.274Z,3.75
2023-04-19T04:54:05.504Z,3.47
2023-04-19T04:56:32.276Z,3.92
2023-04-19T04:58:59.182Z,3.22
2023-04-19T05:01:30.371Z,3.58
2023-04-19T05:03:57.269Z,4.13
2023-04-19T05:06:23.816Z,3.85
2023-04-19T05:08:50.351Z,3.63
2023-04-19T05:11:27.433Z,3.45
2023-04-19T05:13:54.125Z,3.13
2023-04-19T05:16:20.843Z,3.70
2023-04-19T05:22:25.496Z,3.67
2023-04-19T05:24:52.203Z,3.15
2023-04-19T05:27:18.624Z,3.78
2023-04-19T05:29:45.067Z,3.42
2023-04-19T05:32:11.557Z,3.50
2023-04-19T05:34:45.314Z,2.88
2023-04-19T05:37:14.492Z,3.35
2023-04-19T05:39:44.050Z,3.10
2023-04-19T05:42:10.979Z,3.00
2023-04-19T05:44:37.431Z,2.50
2023-04-19T05:47:04.117Z,2.78
2023-04-19T05:49:52.449Z,3.38
2023-04-19T05:52:26.263Z,3.03
2023-04-19T05:54:55.379Z,3.35
2023-04-19T05:57:21.811Z,2.58
2023-04-19T05:59:48.375Z,3.58
2023-04-19T06:02:18.421Z,2.42
2023-04-19T06:04:45.936Z,2.95
2023-04-19T06:07:22.254Z,2.92
2023-04-19T06:09:57.149Z,2.95
2023-04-19T06:12:23.665Z,2.70
2023-04-19T06:14:50.071Z,2.83
2023-04-19T06:17:17.010Z,2.60
2023-04-19T06:19:43.512Z,2.92
2023-04-19T06:22:09.953Z,2.78
2023-04-19T06:24:36.426Z,3.10
2023-04-19T06:27:02.846Z,2.05
2023-04-19T06:29:29.252Z,2.65
2023-04-19T06:31:55.867Z,2.65
2023-04-19T06:34:22.291Z,2.88
2023-04-19T06:36:48.693Z,3.05
2023-04-19T06:39:15.121Z,2.70
2023-04-19T06:41:41.509Z,2.90
2023-04-19T06:44:07.915Z,2.45
2023-04-19T06:46:34.339Z,3.20
2023-04-19T06:49:00.742Z,2.33
2023-04-19T06:51:27.165Z,2.55
2023-04-19T06:53:53.548Z,2.63
2023-04-19T06:56:39.765Z,2.35
2023-04-19T06:59:06.179Z,2.55
2023-04-19T07:01:32.626Z,2.38
2023-04-19T07:03:59.871Z,2.15
2023-04-19T09:46:53.553Z,3.25
2023-04-19T09:49:41.205Z,3.47
2023-04-19T09:54:39.925Z,2.75
2023-04-19T09:57:06.489Z,3.10
2023-04-19T09:59:32.918Z,3.47
2023-04-19T10:02:00.709Z,3.50
2023-04-19T10:04:38.388Z,3.58
2023-04-19T10:14:47.626Z,3.00
2023-04-19T10:17:14.094Z,3.50
2023-04-19T10:19:41.577Z,3.60
2023-04-19T10:22:08.902Z,3.30
2023-04-19T10:24:35.316Z,2.90
2023-04-19T10:27:12.592Z,2.95
2023-04-19T10:30:04.165Z,3.35
2023-04-19T10:32:42.559Z,3.20
2023-04-19T10:35:34.842Z,3.60
2023-04-19T10:38:16.430Z,3.35
2023-04-19T10:40:52.111Z,3.40
2023-04-19T10:43:19.670Z,3.50
2023-04-19T10:45:46.450Z,2.85
2023-04-19T10:48:35.060Z,3.67
2023-04-19T10:51:21.406Z,4.07
2023-04-19T10:53:56.188Z,3.70
2023-04-19T10:57:02.734Z,3.90
2023-04-19T10:59:30.595Z,3.63
2023-04-19T11:01:59.663Z,3.88
2023-04-19T11:04:32.955Z,3.00
2023-04-19T11:07:02.644Z,3.10
2023-04-19T11:09:34.580Z,3.28
2023-04-19T11:12:09.976Z,3.42
2023-04-19T11:14:47.570Z,3.22
2023-04-19T11:17:17.971Z,3.20
2023-04-19T11:20:01.782Z,3.67
2023-04-19T11:22:36.168Z,3.85
2023-04-19T11:25:17.985Z,3.45
2023-04-19T11:27:53.004Z,3.22
2023-04-19T11:30:22.538Z,4.18
2023-04-19T11:32:54.527Z,4.18
2023-04-19T11:35:28.744Z,3.88
2023-04-19T11:37:56.648Z,4.13
2023-04-19T11:40:24.254Z,3.03
2023-04-19T11:42:55.906Z,3.38
2023-04-19T12:12:42.040Z,3.70
2023-04-19T12:15:08.964Z,3.65
2023-04-19T12:17:57.474Z,3.20
2023-04-19T12:20:34.175Z,3.75
2023-04-19T12:23:00.994Z,3.33
2023-04-19T12:34:31.925Z,3.63
2023-04-19T12:41:04.290Z,3.90
2023-04-19T12:43:31.894Z,3.67
2023-04-19T12:46:01.313Z,3.53
2023-04-19T12:48:28.205Z,3.65
2023-04-19T12:50:55.047Z,3.53
2023-04-19T12:53:24.110Z,3.75
2023-04-19T12:55:50.662Z,3.63
2023-04-19T12:58:17.916Z,4.15
2023-04-19T13:00:44.756Z,4.40
2023-04-19T13:03:12.601Z,4.20
2023-04-19T13:05:39.584Z,4.00
2023-04-19T13:08:06.476Z,4.60
2023-04-19T13:10:32.908Z,4.28
2023-04-19T13:15:54.215Z,4.65
2023-04-19T13:18:20.978Z,5.10
2023-04-19T13:20:48.220Z,4.50
2023-04-19T13:23:15.589Z,5.00
2023-04-19T13:25:42.028Z,4.80
2023-04-19T13:28:08.442Z,5.15
2023-04-19T13:30:34.843Z,4.22
2023-04-19T13:33:01.330Z,4.22
2023-04-19T13:35:27.808Z,3.80
2023-04-19T13:37:54.231Z,4.20
2023-04-19T13:40:20.717Z,4.60
2023-04-19T13:42:47.387Z,4.20
2023-04-19T13:45:13.935Z,4.13
2023-04-19T13:47:40.424Z,4.13
2023-04-19T13:50:07.417Z,4.55
2023-04-19T13:52:33.893Z,4.18
2023-04-19T13:55:00.672Z,4.72
2023-04-19T13:57:27.115Z,4.20
2023-04-19T13:59:53.550Z,3.95
2023-04-19T14:02:20.195Z,4.82
2023-04-19T14:04:46.689Z,4.53
2023-04-19T14:07:13.127Z,4.25
2023-04-19T14:09:39.601Z,4.40
2023-04-19T14:12:06.974Z,4.55
2023-04-19T14:14:33.413Z,4.22
2023-04-19T14:16:59.809Z,4.55
2023-04-19T14:19:26.336Z,4.15
2023-04-19T14:21:52.790Z,5.38
2023-04-19T14:24:19.560Z,4.55
2023-04-19T14:26:48.698Z,4.72
2023-04-19T14:29:20.823Z,4.10
2023-04-19T14:31:47.328Z,5.40
2023-04-19T14:34:13.770Z,4.72
2023-04-19T14:36:40.427Z,4.50
2023-04-19T14:39:06.868Z,4.00
2023-04-19T14:41:33.269Z,4.78
2023-04-19T14:43:59.720Z,4.63
2023-04-19T14:46:26.228Z,4.72
2023-04-19T14:48:52.684Z,5.25
2023-04-19T14:51:19.098Z,5.18
2023-04-19T14:53:45.612Z,4.88
2023-04-19T14:56:12.037Z,4.13
2023-04-19T14:58:38.483Z,4.47
2023-04-19T15:01:14.830Z,4.93
2023-04-19T15:03:41.653Z,4.95
2023-04-19T15:06:08.278Z,5.13
2023-04-19T15:08:34.719Z,5.45
2023-04-19T15:11:01.192Z,5.30
2023-04-19T15:13:29.603Z,5.75
2023-04-19T15:15:56.059Z,6.13
2023-04-19T15:18:22.617Z,5.47
2023-04-19T15:20:49.020Z,5.80
2023-04-19T15:23:15.887Z,5.90
2023-04-19T15:25:42.334Z,5.53
2023-04-19T15:28:08.756Z,6.15
2023-04-19T15:30:36.132Z,6.15
2023-04-19T15:33:02.613Z,6.25
2023-04-19T15:35:29.136Z,7.82
2023-04-19T15:37:55.567Z,7.93
2023-04-19T15:40:24.392Z,6.15
2023-04-19T15:42:50.812Z,7.22
2023-04-19T15:45:17.406Z,8.52
2023-04-19T15:47:43.917Z,7.78
2023-04-19T15:50:10.378Z,7.07
2023-04-19T15:52:36.792Z,7.10
2023-04-19T15:55:03.330Z,8.05
2023-04-19T15:57:29.749Z,8.05
2023-04-19T15:59:56.168Z,7.30
2023-04-19T16:02:22.735Z,7.50
2023-04-19T16:04:49.965Z,7.65
2023-04-19T16:07:16.447Z,7.95
2023-04-19T16:09:42.890Z,7.03
2023-04-19T16:12:09.476Z,7.95
2023-04-19T16:14:36.101Z,8.52
2023-04-19T16:17:02.562Z,8.52
2023-04-19T16:19:28.983Z,8.15
2023-04-19T16:21:55.390Z,8.43
2023-04-19T16:24:21.810Z,7.72
2023-04-19T16:26:48.371Z,7.63
2023-04-19T16:29:15.198Z,7.30
2023-04-19T16:31:42.208Z,6.90
2023-04-19T16:34:08.829Z,7.75
2023-04-19T16:36:36.106Z,7.20
2023-04-19T16:39:02.700Z,7.55
2023-04-19T16:41:29.899Z,7.25
2023-04-19T16:43:56.739Z,7.38
2023-04-19T16:46:23.445Z,7.80
2023-04-19T16:48:50.126Z,7.93
2023-04-19T16:51:16.696Z,8.48
2023-04-19T16:53:45.478Z,6.70
2023-04-19T16:56:12.278Z,8.43
2023-04-19T16:58:38.995Z,7.63
2023-04-19T17:01:05.788Z,8.02
2023-04-19T17:03:35.169Z,8.40
2023-04-19T17:06:01.992Z,7.22
2023-04-19T17:08:28.763Z,7.70
2023-04-19T17:10:55.762Z,8.73
2023-04-19T17:13:22.472Z,7.82
2023-04-19T17:15:49.218Z,9.00
2023-04-19T17:18:16.059Z,8.02
2023-04-19T17:20:42.767Z,7.72
2023-04-19T17:23:09.536Z,7.10
2023-04-19T17:25:36.441Z,7.70
2023-04-19T17:28:03.861Z,7.05
2023-04-19T17:30:30.802Z,7.00
2023-04-19T17:32:57.583Z,8.30
2023-04-19T17:35:26.161Z,7.15
2023-04-19T17:37:52.880Z,6.97
2023-04-19T17:40:19.736Z,7.38
2023-04-19T17:42:46.368Z,7.20
2023-04-19T17:45:13.167Z,8.23
2023-04-19T17:47:40.575Z,7.63
2023-04-19T17:50:10.343Z,6.50
2023-04-19T17:52:39.639Z,6.40
2023-04-19T17:55:07.421Z,6.93
2023-04-19T17:57:34.662Z,7.03
2023-04-19T18:00:06.075Z,6.70
2023-04-19T18:02:35.777Z,5.70
2023-04-19T18:05:02.723Z,6.50
2023-04-19T18:07:29.330Z,6.45
2023-04-19T18:09:55.784Z,6.68
2023-04-19T18:12:23.027Z,6.28
2023-04-19T18:14:49.452Z,7.05
2023-04-19T18:17:15.860Z,7.10
2023-04-19T18:19:42.390Z,8.82
2023-04-19T18:22:08.838Z,7.80
2023-04-19T18:24:35.415Z,8.30
2023-04-19T18:27:03.177Z,7.38
2023-04-19T18:29:29.596Z,7.55
2023-04-19T18:31:56.046Z,7.10
2023-04-19T18:34:22.472Z,7.70
2023-04-19T18:36:48.944Z,7.20
2023-04-19T18:39:17.464Z,7.72
2023-04-19T18:41:44.174Z,7.28
2023-04-19T18:44:29.587Z,6.70
2023-04-19T18:46:57.075Z,6.63
2023-04-19T18:49:23.483Z,7.97
2023-04-19T18:51:50.959Z,8.07
2023-04-19T18:54:19.322Z,7.70
2023-04-19T18:59:15.917Z,8.45
2023-04-19T19:01:45.102Z,9.15
2023-04-19T19:04:33.998Z,9.57
2023-04-19T19:07:05.145Z,8.80
2023-04-19T19:09:38.108Z,8.98
2023-04-19T19:12:04.746Z,10.05
2023-04-19T19:14:35.563Z,10.35
2023-04-19T19:17:02.931Z,11.32
2023-04-19T19:19:29.697Z,10.65
2023-04-19T19:21:56.241Z,11.73
2023-04-19T19:24:22.773Z,10.30
2023-04-19T19:26:49.211Z,11.45
2023-04-19T19:29:16.924Z,11.95
2023-04-19T19:31:43.431Z,12.68
2023-04-19T19:34:25.312Z,12.60
2023-04-19T19:36:55.447Z,13.63
2023-04-19T19:39:22.157Z,13.30
2023-04-19T19:42:05.241Z,14.18
2023-04-19T19:44:32.595Z,12.63
2023-04-19T19:46:59.123Z,15.60
2023-04-19T19:49:26.242Z,14.88
2023-04-19T19:51:58.180Z,16.10
2023-04-19T19:54:25.359Z,16.52
2023-04-19T19:59:21.513Z,18.05
2023-04-19T20:01:54.838Z,17.33
2023-04-19T20:04:22.750Z,18.63
2023-04-19T20:09:18.849Z,18.75
2023-04-19T20:11:45.471Z,18.58
2023-04-19T20:14:11.883Z,19.15
2023-04-19T20:16:38.402Z,20.42
2023-04-19T20:19:09.541Z,21.80
2023-04-19T20:24:05.956Z,19.55
2023-04-19T20:26:32.816Z,20.98
2023-04-19T20:28:59.432Z,20.42
2023-04-19T20:31:26.449Z,21.63
2023-04-19T20:33:53.431Z,20.83
2023-04-19T20:36:22.553Z,21.08
2023-04-19T20:38:49.808Z,21.38
2023-04-19T20:41:16.753Z,23.13
2023-04-19T20:43:43.226Z,22.50
2023-04-19T20:46:10.528Z,24.10
2023-04-19T20:48:37.138Z,25.27
2023-04-19T20:51:03.606Z,23.48
2023-04-19T20:53:30.027Z,21.42
2023-04-19T20:55:56.434Z,20.95
2023-04-19T20:58:22.839Z,22.45
2023-04-19T21:00:49.847Z,21.63
2023-04-19T21:03:16.484Z,19.63
2023-04-19T21:05:43.135Z,20.45
2023-04-19T21:08:09.539Z,19.75
2023-04-19T21:10:35.955Z,20.20
2023-04-19T21:13:02.368Z,20.73
2023-04-19T21:15:28.804Z,19.05
2023-04-19T21:17:55.269Z,18.42
2023-04-19T21:20:21.706Z,18.15
2023-04-19T21:22:48.615Z,17.88
2023-04-19T21:25:15.033Z,17.55
2023-04-19T21:27:42.196Z,17.45
2023-04-19T21:30:10.028Z,17.13
2023-04-19T21:32:36.490Z,18.33
2023-04-19T21:35:03.558Z,17.10
2023-04-19T21:37:30.539Z,18.00
2023-04-19T21:39:57.735Z,18.27
2023-04-19T21:42:24.351Z,18.30
2023-04-19T21:44:50.753Z,17.83
2023-04-19T21:47:17.171Z,17.80
2023-04-19T21:49:43.573Z,17.55
2023-04-19T21:52:10.897Z,18.75
2023-04-19T21:54:37.329Z,18.88
2023-04-19T21:57:03.919Z,18.92
2023-04-19T21:59:30.926Z,17.88
2023-04-19T22:01:58.621Z,18.15
2023-04-19T22:04:25.252Z,17.52
2023-04-19T22:06:51.888Z,17.60
2023-04-19T22:09:18.458Z,18.80
2023-04-19T22:11:45.841Z,18.60
2023-04-19T22:14:12.759Z,19.92
2023-04-19T22:16:39.213Z,18.70
2023-04-19T22:19:05.630Z,20.60
2023-04-19T22:21:32.733Z,20.10
2023-04-19T22:23:59.172Z,19.67
2023-04-19T22:26:26.261Z,19.73
2023-04-19T22:28:53.648Z,19.58
2023-04-19T22:31:20.065Z,21.95
2023-04-19T22:33:46.503Z,19.30
2023-04-19T22:36:12.943Z,19.15
2023-04-19T22:38:39.370Z,20.05
2023-04-19T22:41:05.758Z,19.42
2023-04-19T22:43:33.028Z,19.88
2023-04-19T22:45:59.569Z,19.02
2023-04-19T22:48:27.932Z,19.42
2023-04-19T22:50:54.330Z,18.65
2023-04-19T22:53:20.709Z,19.05
2023-04-19T22:55:47.241Z,19.45
2023-04-19T22:58:13.632Z,18.38
2023-04-19T23:00:40.049Z,18.40
2023-04-19T23:03:06.939Z,17.40
2023-04-19T23:05:33.589Z,16.63
2023-04-19T23:08:00.139Z,16.63
2023-04-19T23:10:26.910Z,18.90
2023-04-19T23:12:57.269Z,16.83
2023-04-19T23:15:24.828Z,19.48
2023-04-19T23:17:51.738Z,16.98
2023-04-19T23:20:18.772Z,17.38
2023-04-19T23:22:45.204Z,18.00
2023-04-19T23:25:11.636Z,17.42
2023-04-19T23:27:38.170Z,17.25
2023-04-19T23:30:07.617Z,15.85
2023-04-19T23:32:34.059Z,16.42
2023-04-19T23:35:00.563Z,15.50
2023-04-19T23:37:26.969Z,15.82
2023-04-19T23:39:53.368Z,15.68
2023-04-19T23:42:19.840Z,15.02
2023-04-19T23:44:46.251Z,13.63
2023-04-19T23:47:12.662Z,15.30
2023-04-19T23:49:39.073Z,14.20
2023-04-19T23:52:05.486Z,14.60
2023-04-19T23:54:32.208Z,13.88
2023-04-19T23:56:59.524Z,14.45
2023-04-19T23:59:29.087Z,14.10
